Time;durP1;ratioP1;P1;durP2;ratioP2;P2;SDS_P1;SDS_P2;PMS_P1;PMS_P2;Temp;Humidity;BMP_temperature;BMP_pressure;BME280_temperature;BME280_humidity;BME280_pressure;Samples;Min_cycle;Max_cycle;Signal;HPM_P1;HPM_P2
2022/11/14 00:01:07;;;;;;;36.67;20.00;;;;;;;12.37;100.00;100954.16;5075155;28;20056;-82
2022/11/14 00:03:34;;;;;;;29.17;14.90;;;;;;;12.57;100.00;100945.44;5085306;28;20052;-82
2022/11/14 00:06:07;;;;;;;30.27;15.70;;;;;;;12.63;100.00;100950.44;5092748;28;20431;-82
2022/11/14 00:08:34;;;;;;;34.30;17.10;;;;;;;12.59;100.00;100946.22;5075093;28;20454;-83
2022/11/14 00:11:02;;;;;;;34.63;15.93;;;;;;;12.63;100.00;100940.78;5092340;28;20059;-83
2022/11/14 00:13:29;;;;;;;29.13;16.35;;;;;;;12.50;100.00;100918.59;5092413;28;20062;-82
2022/11/14 00:15:55;;;;;;;23.88;11.95;;;;;;;12.64;100.00;100918.00;5097510;28;20043;-83
2022/11/14 00:18:23;;;;;;;23.30;11.43;;;;;;;12.63;100.00;100895.28;5075362;28;20477;-83
2022/11/14 00:20:51;;;;;;;22.20;12.25;;;;;;;12.87;100.00;100938.00;5092099;28;20048;-82
2022/11/14 00:23:19;;;;;;;25.55;11.50;;;;;;;12.78;100.00;100936.63;5092334;28;20131;-83
2022/11/14 00:25:46;;;;;;;29.27;13.77;;;;;;;12.74;100.00;100929.81;5091046;28;20044;-82
2022/11/14 00:28:13;;;;;;;26.35;14.10;;;;;;;12.84;100.00;100936.38;5073812;28;20040;-82
2022/11/14 00:30:40;;;;;;;27.00;12.75;;;;;;;12.83;100.00;100929.41;5090511;28;20113;-82
2022/11/14 00:33:07;;;;;;;33.45;14.95;;;;;;;12.71;100.00;100925.56;5072408;28;20093;-82
2022/11/14 00:35:34;;;;;;;27.52;14.15;;;;;;;12.69;100.00;100914.25;5090547;28;20047;-82
2022/11/14 00:38:01;;;;;;;25.23;13.15;;;;;;;12.58;100.00;100887.59;5089424;28;20043;-82
2022/11/14 00:40:28;;;;;;;22.20;12.00;;;;;;;12.66;100.00;100911.78;5090330;28;20048;-82
2022/11/14 00:42:55;;;;;;;26.60;16.27;;;;;;;12.54;100.00;100905.25;5066947;28;20093;-82
2022/11/14 00:45:22;;;;;;;23.52;12.38;;;;;;;12.38;100.00;100893.72;5072859;28;20127;-82
2022/11/14 00:47:49;;;;;;;25.38;14.13;;;;;;;12.50;100.00;100905.44;5073899;28;20051;-82
2022/11/14 00:50:16;;;;;;;32.15;16.33;;;;;;;12.32;100.00;100896.59;5077541;28;20522;-82
2022/11/14 00:52:43;;;;;;;27.42;14.60;;;;;;;12.34;100.00;100895.63;5091807;28;20113;-82
2022/11/14 00:55:09;;;;;;;32.47;15.02;;;;;;;12.41;100.00;100893.59;5073532;28;20105;-82
2022/11/14 00:57:36;;;;;;;44.40;19.50;;;;;;;12.35;100.00;100888.59;5072136;28;20097;-82
2022/11/14 01:00:04;;;;;;;31.30;12.85;;;;;;;12.41;100.00;100876.97;5073418;28;20051;-82
2022/11/14 01:02:31;;;;;;;31.95;14.98;;;;;;;12.50;100.00;100895.81;5084322;28;20044;-82
2022/11/14 01:04:58;;;;;;;33.88;15.55;;;;;;;12.47;100.00;100897.72;5072399;28;20093;-82
2022/11/14 01:07:24;;;;;;;30.85;16.98;;;;;;;12.33;100.00;100872.91;5074158;28;20470;-82
2022/11/14 01:09:51;;;;;;;29.77;15.18;;;;;;;12.20;100.00;100848.09;5096221;28;20506;-82
2022/11/14 01:12:18;;;;;;;29.17;13.35;;;;;;;12.43;100.00;100880.38;5073351;28;20105;-82
2022/11/14 01:14:45;;;;;;;29.77;15.60;;;;;;;12.19;100.00;100856.88;5071190;28;20450;-82
2022/11/14 01:17:12;;;;;;;25.58;15.07;;;;;;;12.20;100.00;100847.22;5098135;28;20048;-82
2022/11/14 01:19:39;;;;;;;27.65;13.32;;;;;;;12.31;100.00;100869.50;5068248;28;20056;-82
2022/11/14 01:22:06;;;;;;;28.98;14.57;;;;;;;12.39;100.00;100863.06;5081550;28;20071;-82
2022/11/14 01:24:33;;;;;;;34.85;15.40;;;;;;;12.40;100.00;100870.03;5062664;28;20052;-82
2022/11/14 01:27:00;;;;;;;26.38;13.93;;;;;;;12.34;100.00;100872.00;5068916;28;20044;-82
2022/11/14 01:29:27;;;;;;;26.15;13.40;;;;;;;12.46;100.00;100875.00;5083879;28;20055;-82
2022/11/14 01:31:54;;;;;;;30.33;12.98;;;;;;;12.45;100.00;100870.69;5081298;28;20686;-83
2022/11/14 01:34:22;;;;;;;22.95;10.38;;;;;;;12.55;100.00;100861.47;5084304;28;20534;-82
2022/11/14 01:36:49;;;;;;;21.95;10.85;;;;;;;12.57;100.00;100858.78;5084635;28;20051;-82
2022/11/14 01:39:16;;;;;;;25.00;11.60;;;;;;;12.42;100.00;100852.44;5067949;28;20109;-82
2022/11/14 01:41:42;;;;;;;27.80;11.82;;;;;;;12.37;100.00;100854.41;5080452;28;20052;-82
2022/11/14 01:44:36;;;;;;;29.30;11.20;;;;;;;12.33;100.00;100851.06;5081861;28;20113;-82
2022/11/14 01:47:04;;;;;;;26.23;11.52;;;;;;;12.51;100.00;100868.63;5083543;28;20582;-82
2022/11/14 01:49:39;;;;;;;22.00;9.18;;;;;;;12.47;100.00;100832.91;5070086;28;20081;-83
2022/11/14 01:52:16;;;;;;;18.73;7.55;;;;;;;12.47;100.00;100827.66;5091638;28;20051;-82
2022/11/14 01:54:56;;;;;;;23.45;8.55;;;;;;;12.66;100.00;100845.22;5067607;28;20097;-83
2022/11/14 01:57:30;;;;;;;15.40;5.97;;;;;;;12.67;100.00;100826.78;5090855;28;20063;-83
2022/11/14 02:00:01;;;;;;;24.17;7.72;;;;;;;12.38;100.00;100829.81;5067720;28;20089;-83
2022/11/14 02:02:28;;;;;;;16.38;6.95;;;;;;;12.41;100.00;100817.44;5090669;28;20535;-83
2022/11/14 02:05:10;;;;;;;21.85;7.47;;;;;;;12.46;100.00;100827.72;5083912;28;20473;-82
2022/11/14 02:07:39;;;;;;;23.17;8.18;;;;;;;12.42;100.00;100819.13;5085490;28;20431;-82
2022/11/14 02:10:10;;;;;;;30.48;7.82;;;;;;;12.38;100.00;100806.19;5086368;28;20063;-83
2022/11/14 02:12:37;;;;;;;14.77;6.15;;;;;;;12.23;100.00;100773.59;5087460;28;20109;-83
2022/11/14 02:15:04;;;;;;;26.13;8.00;;;;;;;12.44;100.00;100803.31;5066555;28;20056;-83
2022/11/14 02:17:31;;;;;;;15.23;6.63;;;;;;;12.54;100.00;100789.69;5067276;28;20044;-83
2022/11/14 02:20:28;;;;;;;16.58;6.55;;;;;;;12.65;100.00;100797.09;5090635;28;20055;-82
2022/11/14 02:22:55;;;;;;;16.80;5.30;;;;;;;12.59;100.00;100772.88;5066143;28;20057;-83
2022/11/14 02:25:24;;;;;;;16.42;5.05;;;;;;;12.73;100.00;100778.38;5089307;28;20048;-82
2022/11/14 02:27:51;;;;;;;20.98;7.18;;;;;;;12.54;100.00;100746.84;5090476;28;20048;-82
2022/11/14 02:30:21;;;;;;;17.55;6.40;;;;;;;12.77;100.00;100771.22;5071821;28;20455;-82
2022/11/14 02:32:48;;;;;;;17.88;5.05;;;;;;;12.57;100.00;100737.94;5057718;28;20060;-82
2022/11/14 02:35:34;;;;;;;13.75;4.72;;;;;;;12.62;100.00;100756.97;5064911;28;20080;-82
2022/11/14 02:38:01;;;;;;;18.30;4.82;;;;;;;12.71;100.00;100772.31;5105679;28;20167;-82
2022/11/14 02:40:28;;;;;;;17.30;5.25;;;;;;;12.66;100.00;100761.16;5074754;28;20443;-82
2022/11/14 02:42:55;;;;;;;16.33;4.70;;;;;;;12.40;100.00;100715.09;5090527;28;20048;-83
2022/11/14 02:45:21;;;;;;;17.58;5.15;;;;;;;12.64;100.00;100750.75;5089687;28;20253;-82
2022/11/14 02:47:48;;;;;;;11.93;4.05;;;;;;;12.54;100.00;100725.84;5090015;28;20439;-82
2022/11/14 02:50:16;;;;;;;15.55;4.25;;;;;;;12.56;100.00;100702.97;5089841;28;20101;-83
2022/11/14 02:52:43;;;;;;;17.35;4.93;;;;;;;12.60;100.00;100716.81;5090349;28;20059;-82
2022/11/14 02:55:10;;;;;;;18.67;5.18;;;;;;;12.44;100.00;100714.03;5094444;28;20052;-82
2022/11/14 02:57:36;;;;;;;17.42;4.35;;;;;;;12.67;100.00;100757.63;5071950;28;20040;-82
2022/11/14 03:00:04;;;;;;;12.95;4.28;;;;;;;12.52;100.00;100733.78;5070981;28;20093;-82
2022/11/14 03:02:38;;;;;;;20.65;5.22;;;;;;;12.57;100.00;100743.22;5071018;28;20051;-82
2022/11/14 03:05:05;;;;;;;23.00;4.82;;;;;;;12.20;100.00;100703.72;5071699;28;20401;-82
2022/11/14 03:07:32;;;;;;;14.80;5.20;;;;;;;12.35;100.00;100731.06;5089584;28;20477;-82
2022/11/14 03:09:59;;;;;;;14.65;4.22;;;;;;;12.64;100.00;100735.00;5072490;28;20130;-82
2022/11/14 03:12:26;;;;;;;18.92;5.72;;;;;;;12.56;100.00;100737.09;5084464;28;20063;-82
2022/11/14 03:14:52;;;;;;;20.80;4.45;;;;;;;12.31;100.00;100674.38;5090057;28;20086;-82
2022/11/14 03:17:20;;;;;;;14.38;3.72;;;;;;;12.68;100.00;100715.53;5063989;28;20044;-82
2022/11/14 03:19:47;;;;;;;11.73;4.10;;;;;;;12.48;100.00;100705.97;5085374;28;20051;-83
2022/11/14 03:22:14;;;;;;;13.50;4.03;;;;;;;12.36;100.00;100698.63;5091857;28;20117;-82
2022/11/14 03:24:40;;;;;;;16.70;3.63;;;;;;;12.20;100.00;100679.22;5072156;28;20070;-83
2022/11/14 03:27:07;;;;;;;24.58;4.75;;;;;;;12.25;100.00;100687.75;5092946;28;20090;-82
2022/11/14 03:29:34;;;;;;;20.02;4.88;;;;;;;12.40;100.00;100702.81;5075329;28;20048;-82
2022/11/14 03:32:00;;;;;;;16.17;4.13;;;;;;;12.36;100.00;100703.91;5092805;28;20109;-82
2022/11/14 03:34:27;;;;;;;16.65;4.03;;;;;;;12.44;100.00;100703.53;5089634;28;20051;-82
2022/11/14 03:36:54;;;;;;;20.63;4.85;;;;;;;12.15;100.00;100648.81;5074373;28;20051;-82
2022/11/14 03:39:20;;;;;;;12.55;4.45;;;;;;;12.43;100.00;100678.19;5075229;28;20105;-83
2022/11/14 03:41:47;;;;;;;19.38;4.72;;;;;;;12.42;100.00;100693.09;5093026;28;20048;-82
2022/11/14 03:44:13;;;;;;;16.13;5.15;;;;;;;12.53;100.00;100679.47;5074623;28;20040;-82
2022/11/14 03:46:40;;;;;;;16.15;4.03;;;;;;;12.65;100.00;100684.16;5092543;28;20094;-82
2022/11/14 03:49:07;;;;;;;15.77;4.15;;;;;;;12.45;100.00;100652.72;5078291;28;20064;-82
2022/11/14 03:51:34;;;;;;;34.90;6.80;;;;;;;12.57;100.00;100694.19;5093200;28;20105;-82
2022/11/14 03:54:01;;;;;;;23.02;4.53;;;;;;;12.41;100.00;100670.41;5074935;28;20056;-82
2022/11/14 03:56:27;;;;;;;18.70;4.63;;;;;;;12.62;100.00;100680.81;5092213;28;20040;-82
2022/11/14 03:58:54;;;;;;;22.63;4.72;;;;;;;12.63;100.00;100664.13;5092945;28;20089;-82
2022/11/14 04:01:21;;;;;;;20.27;4.68;;;;;;;12.55;100.00;100646.09;5074461;28;20404;-82
2022/11/14 04:03:48;;;;;;;20.67;5.07;;;;;;;12.66;100.00;100643.84;5093511;28;20055;-83
2022/11/14 04:06:15;;;;;;;18.17;4.47;;;;;;;12.74;100.00;100643.44;5093157;28;20101;-82
2022/11/14 04:08:42;;;;;;;20.30;6.15;;;;;;;12.59;100.00;100646.81;5075226;28;20052;-82
2022/11/14 04:11:08;;;;;;;26.50;5.20;;;;;;;12.58;100.00;100635.47;5093407;28;20154;-83
2022/11/14 04:13:35;;;;;;;20.33;5.63;;;;;;;12.50;100.00;100612.19;5092689;28;20048;-82
2022/11/14 04:16:02;;;;;;;21.17;4.80;;;;;;;12.62;100.00;100618.63;5074572;28;20044;-82
2022/11/14 04:18:29;;;;;;;19.23;4.68;;;;;;;12.79;100.00;100636.22;5074444;28;20048;-82
2022/11/14 04:20:56;;;;;;;19.30;4.60;;;;;;;12.85;100.00;100627.16;5092483;28;20609;-82
2022/11/14 04:23:23;;;;;;;17.42;4.97;;;;;;;12.81;100.00;100625.63;5073702;28;20105;-82
2022/11/14 04:25:49;;;;;;;18.17;4.68;;;;;;;12.77;100.00;100626.72;5092190;28;20054;-82
2022/11/14 04:28:16;;;;;;;16.77;4.63;;;;;;;12.57;100.00;100591.75;5091461;28;20454;-82
2022/11/14 04:30:44;;;;;;;24.60;6.25;;;;;;;12.65;100.00;100601.88;5071115;28;20110;-82
2022/11/14 04:33:11;;;;;;;24.92;5.20;;;;;;;12.79;100.00;100609.94;5087056;28;20701;-83
2022/11/14 04:35:37;;;;;;;16.98;5.07;;;;;;;12.77;100.00;100621.47;5074910;28;20058;-83
2022/11/14 04:38:04;;;;;;;20.63;6.15;;;;;;;12.66;100.00;100580.78;5072899;28;20465;-83
2022/11/14 04:40:31;;;;;;;24.50;5.88;;;;;;;12.86;100.00;100610.50;5074246;28;20048;-82
2022/11/14 04:42:58;;;;;;;26.45;6.50;;;;;;;12.82;100.00;100604.53;5092532;28;20048;-83
2022/11/14 04:45:25;;;;;;;18.98;5.43;;;;;;;12.82;100.00;100598.41;5073111;28;20074;-82
2022/11/14 04:47:51;;;;;;;26.25;5.65;;;;;;;12.83;100.00;100595.72;5091279;28;20067;-82
2022/11/14 04:50:18;;;;;;;21.17;5.15;;;;;;;12.85;100.00;100575.47;5107253;28;20919;-82
2022/11/14 04:52:45;;;;;;;28.52;5.38;;;;;;;12.78;100.00;100570.59;5071992;28;20476;-82
2022/11/14 04:55:12;;;;;;;22.20;5.97;;;;;;;12.93;100.00;100582.13;5079277;28;20477;-83
2022/11/14 04:57:38;;;;;;;16.88;4.28;;;;;;;12.88;100.00;100580.56;5073078;28;20044;-84
2022/11/14 05:00:06;;;;;;;14.80;4.35;;;;;;;12.97;100.00;100584.53;5091740;28;20047;-82
2022/11/14 05:02:33;;;;;;;16.35;4.75;;;;;;;12.93;100.00;100585.59;5070404;28;20105;-83
2022/11/14 05:04:59;;;;;;;19.20;4.40;;;;;;;13.01;100.00;100578.16;5091597;28;20413;-83
2022/11/14 05:07:26;;;;;;;19.80;4.88;;;;;;;12.54;100.00;100540.22;5091450;28;20127;-83
2022/11/14 05:09:53;;;;;;;18.67;4.10;;;;;;;12.94;100.00;100579.41;5091045;28;20055;-83
2022/11/14 05:12:20;;;;;;;20.02;4.95;;;;;;;12.89;100.00;100576.16;5092247;28;20463;-83
2022/11/14 05:14:47;;;;;;;16.48;3.95;;;;;;;13.00;100.00;100578.28;5106571;27;20116;-83
2022/11/14 05:17:14;;;;;;;17.67;4.82;;;;;;;13.04;100.00;100582.44;5073579;28;20059;-83
2022/11/14 05:19:41;;;;;;;22.83;5.65;;;;;;;12.80;100.00;100552.97;5108459;27;20817;-83
2022/11/14 05:22:08;;;;;;;17.73;4.32;;;;;;;13.02;100.00;100574.63;5091727;28;20097;-83
2022/11/14 05:24:34;;;;;;;17.75;4.50;;;;;;;13.05;100.00;100574.47;5090755;28;20546;-83
2022/11/14 05:27:01;;;;;;;17.17;4.60;;;;;;;13.02;100.00;100569.38;5091712;28;20404;-82
2022/11/14 05:29:27;;;;;;;21.05;5.05;;;;;;;13.06;100.00;100564.81;5080497;28;20048;-83
2022/11/14 05:31:55;;;;;;;21.00;4.63;;;;;;;12.81;100.00;100520.53;5080700;28;20112;-82
2022/11/14 05:34:21;;;;;;;33.60;7.20;;;;;;;12.94;100.00;100563.63;5091272;28;20071;-83
2022/11/14 05:36:49;;;;;;;20.63;5.50;;;;;;;12.78;100.00;100539.91;5091041;28;20151;-82
2022/11/14 05:39:16;;;;;;;28.48;7.70;;;;;;;12.83;100.00;100556.28;5091101;28;20051;-84
2022/11/14 05:41:45;;;;;;;19.55;5.40;;;;;;;13.03;100.00;100563.19;5073533;28;20060;-84
2022/11/14 05:44:12;;;;;;;18.90;5.38;;;;;;;12.78;100.00;100539.91;5089760;28;20052;-82
2022/11/14 05:46:40;;;;;;;20.40;5.47;;;;;;;12.98;100.00;100549.44;5090609;28;20069;-83
2022/11/14 05:49:08;;;;;;;21.15;6.15;;;;;;;12.95;100.00;100549.59;5072538;28;20055;-83
2022/11/14 05:51:34;;;;;;;14.80;4.60;;;;;;;13.09;100.00;100564.66;5090585;28;20093;-83
2022/11/14 05:54:01;;;;;;;21.60;5.65;;;;;;;13.01;100.00;100565.03;5090686;28;20048;-82
2022/11/14 05:56:28;;;;;;;18.40;4.90;;;;;;;13.11;100.00;100568.06;5090816;28;20048;-82
2022/11/14 05:58:55;;;;;;;21.30;5.68;;;;;;;13.10;100.00;100569.84;5089900;28;20097;-82
2022/11/14 06:01:21;;;;;;;20.10;5.05;;;;;;;12.95;100.00;100552.22;5106251;28;20051;-82
2022/11/14 06:03:48;;;;;;;14.98;4.88;;;;;;;12.87;100.00;100522.84;5074508;28;20039;-82
2022/11/14 06:06:18;;;;;;;13.90;4.63;;;;;;;13.03;100.00;100564.97;5073287;28;20036;-82
2022/11/14 06:08:45;;;;;;;18.52;5.07;;;;;;;13.04;100.00;100557.00;5090909;28;20709;-83
2022/11/14 06:11:15;;;;;;;25.02;5.18;;;;;;;13.06;100.00;100563.03;5090338;28;20044;-82
2022/11/14 06:13:43;;;;;;;15.27;4.40;;;;;;;12.91;100.00;100535.75;5072444;28;20093;-83
2022/11/14 06:16:15;;;;;;;21.27;5.57;;;;;;;12.91;100.00;100555.94;5090399;28;20044;-82
2022/11/14 06:18:43;;;;;;;23.15;6.63;;;;;;;12.98;100.00;100553.81;5092074;28;20120;-83
2022/11/14 06:21:13;;;;;;;18.33;4.22;;;;;;;12.86;100.00;100522.00;5089914;28;20052;-83
2022/11/14 06:23:40;;;;;;;22.10;7.22;;;;;;;12.96;100.00;100546.03;5084741;28;20554;-83
2022/11/14 06:26:15;;;;;;;24.23;7.07;;;;;;;12.88;100.00;100545.56;5059209;28;20055;-84
2022/11/14 06:28:42;;;;;;;24.20;5.90;;;;;;;12.77;100.00;100514.59;5084913;28;20098;-82
2022/11/14 06:31:09;;;;;;;13.98;4.07;;;;;;;12.90;100.00;100531.41;5067447;28;20122;-82
2022/11/14 06:33:36;;;;;;;24.45;6.93;;;;;;;12.77;100.00;100543.47;5062238;28;20048;-82
2022/11/14 06:36:05;;;;;;;17.42;6.00;;;;;;;12.91;100.00;100545.41;5081610;28;20048;-82
2022/11/14 06:38:34;;;;;;;23.02;6.63;;;;;;;13.00;100.00;100533.59;5069289;28;20109;-82
2022/11/14 06:41:02;;;;;;;24.65;7.20;;;;;;;12.79;100.00;100525.84;5059390;28;20121;-84
2022/11/14 06:43:35;;;;;;;29.42;7.82;;;;;;;12.97;100.00;100545.09;5059991;28;20044;-83
2022/11/14 06:46:03;;;;;;;26.02;6.75;;;;;;;12.87;100.00;100554.38;5068681;28;20055;-84
2022/11/14 06:48:30;;;;;;;21.45;5.20;;;;;;;12.98;100.00;100541.56;5071302;28;20734;-84
2022/11/14 06:50:59;;;;;;;20.65;6.40;;;;;;;12.90;100.00;100523.53;5082798;28;20056;-84
2022/11/14 06:53:28;;;;;;;24.50;8.68;;;;;;;12.99;100.00;100530.09;5067136;28;20055;-84
2022/11/14 06:55:57;;;;;;;21.80;6.90;;;;;;;12.73;100.00;100500.75;5083162;28;20051;-84
2022/11/14 06:58:29;;;;;;;22.95;5.97;;;;;;;13.05;100.00;100545.56;5068765;28;20797;-84
2022/11/14 07:01:05;;;;;;;31.48;9.95;;;;;;;12.83;100.00;100527.41;5071797;28;20401;-83
2022/11/14 07:03:33;;;;;;;21.98;7.65;;;;;;;13.00;100.00;100529.19;5091368;28;20507;-84
2022/11/14 07:06:00;;;;;;;17.95;6.97;;;;;;;13.18;100.00;100545.78;5072367;28;20055;-83
2022/11/14 07:08:28;;;;;;;33.20;8.50;;;;;;;13.04;100.00;100546.50;5083788;28;20048;-83
2022/11/14 07:11:05;;;;;;;20.55;6.10;;;;;;;13.08;100.00;100549.81;5068188;28;20687;-83
2022/11/14 07:13:33;;;;;;;22.33;5.72;;;;;;;13.16;100.00;100549.44;5085763;28;20105;-81
2022/11/14 07:16:00;;;;;;;23.73;6.95;;;;;;;12.80;100.00;100532.81;5073633;28;20057;-82
2022/11/14 07:18:32;;;;;;;20.15;6.20;;;;;;;12.86;100.00;100511.47;5066083;28;20040;-82
2022/11/14 07:21:01;;;;;;;27.45;8.32;;;;;;;12.97;100.00;100531.97;5091456;28;20047;-82
2022/11/14 07:23:29;;;;;;;22.73;6.95;;;;;;;12.92;100.00;100510.31;5090805;28;20051;-84
2022/11/14 07:26:08;;;;;;;30.42;8.23;;;;;;;12.82;100.00;100512.56;5094302;28;20070;-84
2022/11/14 07:28:38;;;;;;;38.53;11.63;;;;;;;12.81;100.00;100489.00;5073333;28;20511;-84
2022/11/14 07:31:11;;;;;;;21.45;8.55;;;;;;;13.13;100.00;100518.88;5077519;28;20052;-83
2022/11/14 07:33:39;;;;;;;20.98;8.25;;;;;;;12.91;100.00;100483.19;5110467;28;20044;-84
2022/11/14 07:36:07;;;;;;;26.80;8.52;;;;;;;12.68;100.00;100463.34;5094047;28;20056;-82
2022/11/14 07:38:35;;;;;;;20.52;7.88;;;;;;;13.08;100.00;100500.75;5075672;28;20058;-83
2022/11/14 07:41:13;;;;;;;26.25;9.70;;;;;;;13.02;100.00;100511.56;5067377;28;20051;-81
2022/11/14 07:43:41;;;;;;;27.27;9.68;;;;;;;12.86;100.00;100518.53;5094491;28;20097;-81
2022/11/14 07:46:11;;;;;;;27.55;9.18;;;;;;;13.07;100.00;100501.66;5076563;28;20511;-83
2022/11/14 07:48:38;;;;;;;30.30;10.05;;;;;;;12.62;100.00;100461.03;5099496;28;20477;-83
2022/11/14 07:51:08;;;;;;;26.30;9.85;;;;;;;12.85;100.00;100477.41;5076513;28;20048;-83
2022/11/14 07:53:35;;;;;;;27.58;9.52;;;;;;;12.62;100.00;100465.44;5076140;28;20055;-83
2022/11/14 07:56:09;;;;;;;37.60;11.40;;;;;;;12.73;100.00;100498.13;5075624;28;20439;-83
2022/11/14 07:58:38;;;;;;;24.52;8.32;;;;;;;12.47;100.00;100459.19;5076454;28;20555;-82
2022/11/14 08:01:06;;;;;;;27.08;8.85;;;;;;;12.72;100.00;100492.94;5082824;28;20130;-82
2022/11/14 08:03:34;;;;;;;28.48;6.78;;;;;;;12.89;100.00;100487.69;5094150;28;20044;-83
2022/11/14 08:06:01;;;;;;;29.40;9.82;;;;;;;13.16;100.00;100508.22;5075818;28;20055;-84
2022/11/14 08:08:28;;;;;;;25.42;8.85;;;;;;;12.77;100.00;100492.72;5077284;28;20048;-83
2022/11/14 08:10:57;;;;;;;31.17;9.45;;;;;;;12.90;100.00;100507.75;5095078;28;20048;-83
2022/11/14 08:13:24;;;;;;;23.88;9.40;;;;;;;12.54;100.00;100486.84;5057994;28;20052;-83
2022/11/14 08:15:59;;;;;;;29.15;9.27;;;;;;;12.72;100.00;100479.81;5088745;28;20092;-84
2022/11/14 08:18:25;;;;;;;24.10;7.63;;;;;;;12.84;100.00;100481.81;5087788;28;20055;-84
2022/11/14 08:20:56;;;;;;;23.63;8.85;;;;;;;12.90;100.00;100499.88;5070063;28;20550;-85
2022/11/14 08:23:23;;;;;;;23.33;9.60;;;;;;;12.80;100.00;100498.66;5077291;28;20477;-83
2022/11/14 08:25:50;;;;;;;29.05;9.32;;;;;;;12.88;100.00;100540.31;5092776;28;20679;-83
2022/11/14 08:28:17;;;;;;;21.17;8.93;;;;;;;12.81;100.00;100489.84;5071004;28;20049;-83
2022/11/14 08:30:43;;;;;;;24.40;8.95;;;;;;;12.75;100.00;100503.31;5083616;28;20058;-83
2022/11/14 08:33:10;;;;;;;25.33;9.50;;;;;;;12.79;100.00;100467.22;5090634;28;20056;-84
2022/11/14 08:35:38;;;;;;;18.50;8.23;;;;;;;13.21;100.00;100518.47;5094241;28;20097;-84
2022/11/14 08:38:04;;;;;;;24.65;8.77;;;;;;;12.98;100.00;100485.50;5076960;28;20044;-84
2022/11/14 08:40:31;;;;;;;33.53;12.70;;;;;;;12.67;100.00;100482.66;5095076;28;20052;-83
2022/11/14 08:43:01;;;;;;;30.48;11.98;;;;;;;12.77;100.00;100488.31;5095035;28;20044;-83
2022/11/14 08:45:29;;;;;;;29.23;9.95;;;;;;;13.11;100.00;100504.97;5094693;28;20051;-84
2022/11/14 08:47:55;;;;;;;24.70;11.55;;;;;;;13.14;100.00;100515.34;5076814;28;20059;-84
2022/11/14 08:50:23;;;;;;;26.23;12.70;;;;;;;12.90;100.00;100480.66;5076613;28;20060;-85
2022/11/14 08:52:53;;;;;;;32.90;13.57;;;;;;;12.98;100.00;100488.13;5077000;28;20052;-86
2022/11/14 08:55:20;;;;;;;24.48;12.02;;;;;;;12.74;100.00;100459.56;5075117;28;20049;-84
2022/11/14 08:57:47;;;;;;;31.95;11.93;;;;;;;12.83;100.00;100468.75;5095047;28;20044;-85
2022/11/14 09:00:16;;;;;;;31.17;13.07;;;;;;;12.65;100.00;100455.63;5094624;28;20127;-84
2022/11/14 09:02:43;;;;;;;35.90;13.38;;;;;;;12.75;100.00;100489.31;5075823;28;20047;-84
2022/11/14 09:05:10;;;;;;;33.58;11.82;;;;;;;12.68;100.00;100465.16;5093822;28;20060;-82
2022/11/14 09:07:36;;;;;;;24.67;11.65;;;;;;;12.82;100.00;100475.78;5093742;28;20044;-84
2022/11/14 09:10:04;;;;;;;27.23;11.68;;;;;;;12.96;100.00;100508.38;5076081;28;20094;-83
2022/11/14 09:12:31;;;;;;;32.55;13.82;;;;;;;12.31;100.00;100452.06;5080131;28;20405;-85
2022/11/14 09:14:58;;;;;;;32.75;12.30;;;;;;;12.67;100.00;100494.94;5094065;28;20338;-84
2022/11/14 09:17:25;;;;;;;29.90;12.32;;;;;;;12.82;100.00;100496.81;5076528;28;20439;-85
2022/11/14 09:19:52;;;;;;;25.00;11.40;;;;;;;12.37;100.00;100471.91;5093606;28;20040;-84
2022/11/14 09:22:19;;;;;;;27.50;12.73;;;;;;;12.30;100.00;100444.25;5094257;28;20051;-84
2022/11/14 09:24:48;;;;;;;32.25;11.43;;;;;;;12.49;100.00;100447.66;5093590;28;20516;-84
2022/11/14 09:27:16;;;;;;;23.88;10.57;;;;;;;12.72;100.00;100469.31;5093550;28;20044;-84
2022/11/14 09:29:43;;;;;;;38.10;12.30;;;;;;;12.64;100.00;100477.59;5075990;28;20062;-84
2022/11/14 09:32:10;;;;;;;28.75;10.20;;;;;;;12.61;100.00;100434.88;5093373;28;20048;-84
2022/11/14 09:34:36;;;;;;;37.78;10.40;;;;;;;12.75;100.00;100458.66;5075502;28;20052;-85
2022/11/14 09:37:03;;;;;;;31.52;10.27;;;;;;;12.81;100.00;100484.59;5093423;28;20071;-85
2022/11/14 09:39:30;;;;;;;21.83;8.70;;;;;;;12.78;100.00;100442.69;5075941;28;20040;-83
2022/11/14 09:42:07;;;;;;;22.58;9.98;;;;;;;12.99;100.00;100493.31;5093903;28;20048;-84
2022/11/14 09:44:48;;;;;;;30.70;12.93;;;;;;;12.90;100.00;100485.91;5075931;28;20052;-83
2022/11/14 09:47:23;;;;;;;30.77;11.98;;;;;;;12.87;100.00;100455.38;5075553;28;20043;-83
2022/11/14 09:49:54;;;;;;;34.20;13.13;;;;;;;12.75;100.00;100450.75;5093188;28;20378;-84
2022/11/14 09:52:36;;;;;;;30.30;11.75;;;;;;;13.02;100.00;100448.47;5074792;28;20059;-84
2022/11/14 09:55:10;;;;;;;36.50;12.63;;;;;;;13.16;100.00;100466.16;5074264;28;20047;-84
2022/11/14 09:57:39;;;;;;;23.88;10.93;;;;;;;12.94;100.00;100440.13;5092996;28;20415;-84
2022/11/14 10:00:18;;;;;;;30.45;12.10;;;;;;;12.94;100.00;100465.56;5075449;28;20055;-84
2022/11/14 10:03:04;;;;;;;26.30;11.13;;;;;;;13.08;100.00;100456.06;5093226;28;20131;-84
2022/11/14 10:05:57;;;;;;;32.95;15.10;;;;;;;12.68;100.00;100447.59;5074938;28;20054;-83
2022/11/14 10:08:48;;;;;;;30.95;12.95;;;;;;;13.03;100.00;100459.81;5096054;28;20054;-83
2022/11/14 10:11:35;;;;;;;22.63;10.00;;;;;;;12.86;100.00;100406.38;5093234;28;20378;-84
2022/11/14 10:14:27;;;;;;;29.88;12.05;;;;;;;13.09;100.00;100447.22;5075306;28;20451;-84
2022/11/14 10:17:21;;;;;;;28.27;12.88;;;;;;;13.04;100.00;100433.47;5093088;28;20067;-84
2022/11/14 10:20:06;;;;;;;37.13;15.07;;;;;;;12.98;100.00;100441.69;5092699;28;20047;-86
2022/11/14 10:22:51;;;;;;;31.95;11.93;;;;;;;13.13;100.00;100431.28;5069368;28;20059;-82
2022/11/14 10:25:28;;;;;;;32.33;11.13;;;;;;;12.94;100.00;100436.66;5064790;28;20487;-82
2022/11/14 10:28:28;;;;;;;49.35;12.85;;;;;;;12.91;100.00;100428.00;5080962;28;20063;-83
2022/11/14 10:31:01;;;;;;;33.25;13.05;;;;;;;12.98;100.00;100439.06;5091560;28;20479;-83
2022/11/14 10:33:35;;;;;;;33.55;11.65;;;;;;;12.99;100.00;100435.50;5094953;28;20040;-82
2022/11/14 10:36:37;;;;;;;44.63;12.85;;;;;;;12.83;100.00;100405.69;5097175;28;20052;-83
2022/11/14 10:39:11;;;;;;;30.30;11.32;;;;;;;13.06;100.00;100436.03;5079091;28;20044;-83
2022/11/14 10:41:39;;;;;;;30.63;13.07;;;;;;;12.82;100.00;100389.09;5079218;28;20052;-82
2022/11/14 10:44:51;;;;;;;27.13;11.50;;;;;;;12.78;100.00;100371.78;5071573;28;20055;-82
2022/11/14 10:47:23;;;;;;;37.60;12.73;;;;;;;12.57;100.00;100407.03;5084770;28;20044;-83
2022/11/14 10:49:54;;;;;;;35.38;14.90;;;;;;;12.45;100.00;100379.66;5079798;28;20280;-81
2022/11/14 10:52:38;;;;;;;38.03;15.52;;;;;;;12.44;100.00;100363.03;5083255;28;20052;-83
2022/11/14 10:55:16;;;;;;;33.28;14.25;;;;;;;12.82;100.00;100406.63;5078488;28;20056;-82
2022/11/14 10:57:46;;;;;;;39.05;13.88;;;;;;;12.78;100.00;100374.41;5079097;28;20066;-81
2022/11/14 11:00:21;;;;;;;29.35;13.43;;;;;;;12.63;100.00;100365.56;5112940;28;20463;-83
2022/11/14 11:02:56;;;;;;;41.35;15.43;;;;;;;12.96;100.00;100398.88;5096545;28;20159;-83
2022/11/14 11:05:28;;;;;;;34.60;14.48;;;;;;;12.89;100.00;100398.34;5097060;28;20431;-82
2022/11/14 11:13:59;;;;;;;30.02;14.05;;;;;;;12.64;100.00;100382.16;5096331;28;20079;-83
2022/11/14 11:16:27;;;;;;;31.38;14.20;;;;;;;12.87;100.00;100396.72;5096427;28;20056;-83
2022/11/14 11:19:20;;;;;;;29.48;11.80;;;;;;;12.74;100.00;100365.00;5095960;28;20067;-83
2022/11/14 11:21:50;;;;;;;21.60;9.95;;;;;;;12.66;100.00;100347.03;5098817;28;20064;-85
2022/11/14 11:24:35;;;;;;;30.85;15.43;;;;;;;12.32;100.00;100346.16;5078468;28;20084;-84